Bookmark and Share
Track history (hours):
 

MSC Vienna

Last reported at 2014-Mar-29 18:18 UTC. Time now 2014-Apr-24 05:56 UTC.
Position N 38°10' E 015°35'.
Warning: this ship's position is 25 days out of date.

Length 260.1 m; beam 32.2 m; draft 12 m.

Type: Ship (hazmat cat A). MMSI: 636090654.

NotesDate/timePositionNaut miles runAvg speedWind from/ knotsBaromVisibWave heightAir tempDewpointWater temp
2014-Mar-29 18:18N 38°10' E 015°35'  
2014-Mar-26 13:17N 40°15' E 014°21'1217.1
2014-Mar-26 12:33N 40°26' E 014°12'1414.3
2014-Mar-26 11:33N 40°40' E 014°11'1111.4
2014-Mar-26 10:33N 40°50' E 014°17'0 0.0
2014-Mar-26 09:09N 40°50' E 014°17'0 0.0
2014-Mar-26 08:12N 40°50' E 014°17'0 0.0
2014-Mar-26 07:26N 40°50' E 014°17'0 0.0
2014-Mar-25 23:32N 40°50' E 014°17'0 0.0
2014-Mar-25 22:32N 40°50' E 014°17'0 0.0
2014-Mar-25 21:19N 40°50' E 014°17'0 0.0
2014-Mar-25 16:32N 40°50' E 014°17'4 3.9
2014-Mar-25 15:33N 40°47' E 014°19'1 0.5
2014-Mar-25 14:33N 40°46' E 014°19'1 0.8
2014-Mar-25 13:33N 40°46' E 014°18'1 0.6
2014-Mar-25 12:33N 40°46' E 014°17'1 0.7
2014-Mar-25 11:33N 40°45' E 014°17'1 0.9
2014-Mar-25 10:33N 40°44' E 014°16'1 0.7
2014-Mar-25 09:33N 40°44' E 014°16'1 0.6
2014-Mar-25 08:33N 40°44' E 014°15'6 6.1
2014-Mar-25 07:33N 40°42' E 014°07'1716.7
2014-Mar-25 06:33N 40°37' E 013°46'1717.2
2014-Mar-25 05:33N 40°40' E 013°24'15912.2
2014-Mar-24 16:35N 41°59' E 010°21'242 5.5
2014-Mar-22 20:33N 43°08' E 005°06'218.4
2014-Mar-22 20:26N 43°09' E 005°04'18 6.4
2014-Mar-22 17:32N 43°25' E 004°50'0 0.0
2014-Mar-22 14:33N 43°25' E 004°50'0 0.0
2014-Mar-22 13:33N 43°25' E 004°50'0 0.0
2014-Mar-22 12:29N 43°25' E 004°50'0 0.0
2014-Mar-22 11:29N 43°25' E 004°50'0 0.0
2014-Mar-22 10:29N 43°25' E 004°50'0 0.0
2014-Mar-22 09:22N 43°25' E 004°50'0 0.0
2014-Mar-22 08:28N 43°25' E 004°50'0 0.0
2014-Mar-22 07:33N 43°25' E 004°50'0 0.0
2014-Mar-22 06:33N 43°25' E 004°50'0 0.0
2014-Mar-22 05:32N 43°25' E 004°50'0 0.0
2014-Mar-22 03:32N 43°25' E 004°50'1 1.4
2014-Mar-22 02:33N 43°24' E 004°52'1110.9
2014-Mar-22 01:33N 43°16' E 005°01'5317.7
2014-Mar-21 22:33N 42°32' E 004°20'1818.3
2014-Mar-21 21:33N 42°18' E 004°03'4618.5
2014-Mar-21 19:03N 41°43' E 003°23'1019.8
2014-Mar-21 18:33N 41°36' E 003°14'1716.5
2014-Mar-21 17:33N 41°23' E 003°01'1 0.9
2014-Mar-21 16:33N 41°23' E 002°59'1 0.8
2014-Mar-21 15:30N 41°23' E 002°58'1 0.7
2014-Mar-21 14:32N 41°22' E 002°57'1 0.8
2014-Mar-21 13:33N 41°22' E 002°56'2 1.8
2014-Mar-21 12:33N 41°22' E 002°54'1817.8
2014-Mar-21 11:33N 41°08' E 002°38'1918.6
2014-Mar-21 10:33N 40°55' E 002°22'1818.0
2014-Mar-21 09:33N 40°41' E 002°05'1919.0
2014-Mar-21 08:33N 40°27' E 001°49'1918.8
2014-Mar-21 07:33N 40°14' E 001°32'1818.5
2014-Mar-21 06:33N 40°00' E 001°16'  

Dump ship's entire track history

sailing weather and tide predictions

MSC Vienna — A8CI9 — position and weather